Time;durP1;ratioP1;P1;durP2;ratioP2;P2;SDS_P1;SDS_P2;PMS_P1;PMS_P2;Temp;Humidity;BMP_temperature;BMP_pressure;BME280_temperature;BME280_humidity;BME280_pressure;Samples;Min_cycle;Max_cycle;Signal;HPM_P1;HPM_P2
2022/11/30 00:02:15;;;;;;;4.40;4.00;;;;;;;5.78;100.00;95018.84;4920356;29;20439;-86
2022/11/30 00:04:42;;;;;;;3.80;3.50;;;;;;;5.80;100.00;95021.34;4920145;29;20440;-87
2022/11/30 00:07:09;;;;;;;4.97;4.03;;;;;;;5.87;100.00;95020.03;4920109;29;20820;-87
2022/11/30 00:09:36;;;;;;;8.00;4.30;;;;;;;5.89;100.00;95028.56;4920979;29;20449;-87
2022/11/30 00:12:04;;;;;;;4.53;3.80;;;;;;;5.96;100.00;95029.03;4920032;29;20448;-88
2022/11/30 00:14:31;;;;;;;3.43;3.13;;;;;;;5.96;100.00;95029.03;4920320;29;20853;-87
2022/11/30 00:16:58;;;;;;;4.27;3.87;;;;;;;6.00;100.00;95025.28;4920937;29;20445;-87
2022/11/30 00:19:25;;;;;;;5.30;4.80;;;;;;;6.05;100.00;95033.63;4919677;29;20488;-87
2022/11/30 00:21:52;;;;;;;14.70;6.00;;;;;;;5.97;100.00;95035.91;4919756;29;20500;-87
2022/11/30 00:24:19;;;;;;;8.77;6.03;;;;;;;5.85;100.00;95032.31;4920170;29;20471;-87
2022/11/30 00:26:46;;;;;;;8.03;6.37;;;;;;;5.94;100.00;95042.16;4920277;29;20838;-87
2022/11/30 00:29:14;;;;;;;8.80;6.53;;;;;;;5.74;100.00;95037.34;4920250;29;20805;-87
2022/11/30 00:31:41;;;;;;;11.50;7.83;;;;;;;5.86;100.00;95039.19;4920584;29;20916;-88
2022/11/30 00:34:08;;;;;;;12.37;6.37;;;;;;;5.80;100.00;95040.41;4919553;29;20932;-87
2022/11/30 00:36:35;;;;;;;10.20;6.37;;;;;;;5.54;100.00;95039.47;4902436;29;20450;-87
2022/11/30 00:39:01;;;;;;;7.77;4.60;;;;;;;5.51;100.00;95033.63;4919558;29;20496;-88
2022/11/30 00:41:28;;;;;;;4.90;4.13;;;;;;;5.44;100.00;95027.09;4919526;29;20859;-87
2022/11/30 00:43:55;;;;;;;3.97;3.30;;;;;;;5.63;100.00;95037.19;4919532;29;20456;-87
2022/11/30 00:46:23;;;;;;;4.63;3.20;;;;;;;5.60;100.00;95033.84;4918994;29;20988;-87
2022/11/30 00:48:50;;;;;;;4.53;3.17;;;;;;;5.50;100.00;95027.56;4919144;29;20456;-87
2022/11/30 00:51:19;;;;;;;4.00;2.63;;;;;;;5.50;100.00;95019.75;4920351;29;20465;-87
2022/11/30 00:53:47;;;;;;;3.13;2.93;;;;;;;5.59;100.00;95021.78;4919043;29;20469;-87
2022/11/30 00:56:14;;;;;;;2.97;2.77;;;;;;;5.56;100.00;95027.19;4919568;29;20492;-87
2022/11/30 00:58:41;;;;;;;3.70;3.27;;;;;;;5.73;100.00;95022.66;4919310;29;20480;-86
2022/11/30 01:04:31;;;;;;;6.23;2.90;;;;;;;5.85;100.00;95029.69;4918034;29;20854;-87
2022/11/30 01:06:58;;;;;;;2.73;2.53;;;;;;;5.80;100.00;95021.34;4918876;29;20453;-86
2022/11/30 01:09:25;;;;;;;3.13;2.83;;;;;;;5.93;100.00;95018.81;4919254;29;20463;-87
2022/11/30 01:11:52;;;;;;;2.30;1.93;;;;;;;5.74;100.00;95019.13;4919085;29;20453;-87
2022/11/30 01:21:30;;;;;;;3.40;3.10;;;;;;;5.23;100.00;95018.88;4917908;29;20531;-86
2022/11/30 01:23:57;;;;;;;3.43;2.67;;;;;;;5.21;100.00;95023.34;4919717;29;20455;-87
2022/11/30 01:26:24;;;;;;;2.90;2.63;;;;;;;5.08;100.00;95020.66;4918478;29;20445;-87
2022/11/30 01:28:52;;;;;;;3.03;2.70;;;;;;;5.25;100.00;95025.66;4918514;29;21302;-87
2022/11/30 01:31:20;;;;;;;2.90;2.70;;;;;;;5.17;100.00;95022.66;4918962;29;20447;-85
2022/11/30 01:33:50;;;;;;;2.57;2.37;;;;;;;5.18;100.00;95021.75;4918940;29;20452;-86
2022/11/30 01:36:20;;;;;;;2.50;2.30;;;;;;;5.23;100.00;95018.88;4918336;29;20456;-86
2022/11/30 01:38:50;;;;;;;5.50;2.70;;;;;;;5.12;100.00;95029.09;4918362;29;20483;-86
2022/11/30 01:41:21;;;;;;;2.60;2.40;;;;;;;5.01;100.00;95029.75;4918714;29;20462;-86
2022/11/30 01:43:50;;;;;;;2.47;2.37;;;;;;;5.04;100.00;95031.34;4918077;29;20480;-86
2022/11/30 01:49:51;;;;;;;2.07;1.87;;;;;;;5.13;100.00;95025.56;4918448;29;20814;-86
2022/11/30 01:52:23;;;;;;;2.77;2.53;;;;;;;5.05;100.00;95020.00;4918429;29;20456;-86
2022/11/30 01:54:54;;;;;;;6.33;2.30;;;;;;;5.15;100.00;95016.72;4918942;29;20445;-87
2022/11/30 01:57:26;;;;;;;3.30;3.00;;;;;;;5.09;100.00;95014.50;4917988;29;20444;-86
2022/11/30 01:59:57;;;;;;;2.87;2.67;;;;;;;5.16;100.00;95017.56;4918366;29;20480;-87
2022/11/30 02:02:32;;;;;;;2.57;2.37;;;;;;;4.97;100.00;95010.06;4918681;29;20839;-86
2022/11/30 02:08:33;;;;;;;2.40;2.23;;;;;;;5.02;100.00;95007.19;4918515;29;20942;-87
2022/11/30 02:11:06;;;;;;;2.70;2.47;;;;;;;4.78;100.00;95005.13;4918422;29;20468;-87
2022/11/30 02:13:44;;;;;;;5.03;3.53;;;;;;;4.78;100.00;95009.50;4926808;29;20449;-87
2022/11/30 02:16:23;;;;;;;2.90;2.70;;;;;;;4.94;100.00;95005.91;4928429;29;20467;-87
2022/11/30 02:19:01;;;;;;;3.10;2.80;;;;;;;4.98;100.00;95003.94;4919493;29;20479;-86
2022/11/30 02:21:35;;;;;;;2.80;2.60;;;;;;;4.98;100.00;95011.75;4916347;29;20860;-86
2022/11/30 02:24:20;;;;;;;3.20;2.90;;;;;;;4.87;100.00;95007.19;4917748;29;20443;-87
2022/11/30 02:27:15;;;;;;;2.53;2.33;;;;;;;5.02;100.00;95004.59;4917872;29;20444;-86
2022/11/30 02:29:47;;;;;;;3.40;2.60;;;;;;;5.08;100.00;95006.81;4918498;29;20439;-87
2022/11/30 02:32:19;;;;;;;2.63;2.43;;;;;;;4.89;100.00;95007.91;4917915;29;20533;-87
2022/11/30 02:34:48;;;;;;;2.70;2.43;;;;;;;4.91;100.00;95002.63;4918107;29;20456;-87
2022/11/30 02:37:16;;;;;;;3.30;3.10;;;;;;;4.74;100.00;95005.41;4918745;29;20788;-87
2022/11/30 02:39:49;;;;;;;3.07;2.87;;;;;;;4.97;100.00;95008.31;4900701;29;20491;-88
2022/11/30 02:42:16;;;;;;;3.33;3.03;;;;;;;5.12;100.00;95003.91;4917407;29;20444;-87
2022/11/30 02:44:47;;;;;;;3.20;2.77;;;;;;;5.26;100.00;95005.69;4917619;29;20476;-87
2022/11/30 02:47:21;;;;;;;3.47;3.17;;;;;;;5.37;100.00;95005.00;4917506;29;20963;-87
2022/11/30 02:49:54;;;;;;;3.03;2.63;;;;;;;5.45;100.00;95002.75;4917571;29;20445;-87
2022/11/30 02:52:26;;;;;;;7.23;3.23;;;;;;;5.42;100.00;95008.97;4918155;29;20476;-87
2022/11/30 02:54:53;;;;;;;5.10;3.30;;;;;;;5.42;100.00;95008.97;4916238;29;20454;-87
2022/11/30 02:57:20;;;;;;;4.07;2.70;;;;;;;5.50;100.00;95011.97;4917306;29;20212;-87
2022/11/30 02:59:48;;;;;;;3.23;3.03;;;;;;;5.47;100.00;95013.88;4917066;29;20521;-87
2022/11/30 03:02:15;;;;;;;4.23;3.70;;;;;;;5.58;100.00;95016.66;4917330;29;20452;-87
2022/11/30 03:04:42;;;;;;;4.30;3.73;;;;;;;5.64;100.00;95015.44;4917570;29;20451;-87
2022/11/30 03:07:09;;;;;;;3.07;2.77;;;;;;;5.40;100.00;95021.25;4917711;29;20428;-86
2022/11/30 03:09:35;;;;;;;3.37;3.17;;;;;;;5.54;100.00;95010.81;4918752;29;20436;-87
2022/11/30 03:12:02;;;;;;;5.57;3.90;;;;;;;5.58;100.00;95017.50;4921514;29;20802;-88
2022/11/30 03:14:29;;;;;;;4.87;4.10;;;;;;;5.67;100.00;95012.63;4922415;29;20460;-87
2022/11/30 03:16:57;;;;;;;6.50;5.37;;;;;;;5.68;100.00;95012.53;4919927;29;20808;-87
2022/11/30 03:19:24;;;;;;;4.03;3.73;;;;;;;5.72;100.00;95020.97;4920810;29;20842;-87
2022/11/30 03:21:51;;;;;;;5.00;4.00;;;;;;;5.65;100.00;95019.72;4921131;29;20485;-87
2022/11/30 03:24:18;;;;;;;3.17;2.90;;;;;;;5.63;100.00;95017.22;4921089;29;20448;-87
2022/11/30 03:26:45;;;;;;;2.57;2.30;;;;;;;5.42;100.00;95008.97;4921570;29;20452;-87
2022/11/30 03:29:12;;;;;;;2.37;2.17;;;;;;;5.41;100.00;95016.88;4921299;29;20456;-85
2022/11/30 03:31:39;;;;;;;3.77;2.40;;;;;;;5.34;100.00;95013.84;4921857;29;20459;-86
2022/11/30 03:34:07;;;;;;;3.33;2.33;;;;;;;5.50;100.00;95016.31;4922458;29;20453;-85
2022/11/30 03:36:34;;;;;;;3.40;3.10;;;;;;;5.46;100.00;95014.81;4925041;29;20459;-85
2022/11/30 03:39:01;;;;;;;1.83;1.70;;;;;;;5.41;100.00;95009.91;4925689;29;20846;-86
2022/11/30 03:41:29;;;;;;;2.33;2.03;;;;;;;5.56;100.00;95015.94;4926233;29;20948;-86
2022/11/30 03:43:56;;;;;;;2.33;2.13;;;;;;;5.54;100.00;95015.19;4924288;29;20467;-87
2022/11/30 03:46:23;;;;;;;2.70;2.10;;;;;;;5.50;100.00;95016.31;4923111;29;20456;-86
2022/11/30 03:48:50;;;;;;;2.13;1.93;;;;;;;5.28;100.00;95017.66;4920397;29;20459;-87
2022/11/30 03:51:18;;;;;;;4.70;3.10;;;;;;;5.23;100.00;95017.13;4919470;29;20455;-86
2022/11/30 03:53:45;;;;;;;6.50;2.80;;;;;;;5.35;100.00;95014.66;4920010;29;20461;-85
2022/11/30 03:56:13;;;;;;;5.37;3.07;;;;;;;5.44;100.00;95007.13;4921479;29;20798;-86
2022/11/30 03:58:40;;;;;;;2.17;2.00;;;;;;;5.33;100.00;95021.75;4920636;29;20822;-85
2022/11/30 04:01:10;;;;;;;2.70;2.50;;;;;;;5.30;100.00;95022.75;4920328;29;20457;-85
2022/11/30 04:03:38;;;;;;;3.93;2.53;;;;;;;5.40;100.00;95025.63;4919781;29;20468;-87
2022/11/30 04:06:07;;;;;;;8.47;3.93;;;;;;;5.32;100.00;95031.31;4921953;29;20460;-85
2022/11/30 04:08:36;;;;;;;4.77;3.67;;;;;;;5.31;100.00;95024.44;4925575;29;20443;-85
2022/11/30 04:11:03;;;;;;;3.03;2.70;;;;;;;5.42;100.00;95027.19;4927493;29;20526;-86
2022/11/30 04:13:32;;;;;;;2.60;2.40;;;;;;;5.35;100.00;95022.47;4906223;29;20956;-90
2022/11/30 04:15:59;;;;;;;3.10;2.80;;;;;;;5.36;100.00;95029.34;4918309;29;20454;-86
2022/11/30 04:18:28;;;;;;;4.53;4.00;;;;;;;5.22;100.00;95027.63;4918926;29;20211;-85
2022/11/30 04:20:57;;;;;;;4.60;3.80;;;;;;;5.20;100.00;95027.72;4919970;29;20507;-86
2022/11/30 04:23:24;;;;;;;4.00;3.40;;;;;;;5.20;100.00;95029.44;4919600;29;20453;-86
2022/11/30 04:25:53;;;;;;;3.40;3.10;;;;;;;5.40;100.00;95033.44;4919126;29;20450;-85
2022/11/30 04:28:20;;;;;;;2.20;2.10;;;;;;;5.28;100.00;95042.84;4919037;29;20461;-87
2022/11/30 04:30:47;;;;;;;2.60;2.40;;;;;;;5.21;100.00;95033.75;4918731;29;20467;-87
2022/11/30 04:33:15;;;;;;;2.30;2.10;;;;;;;4.94;100.00;95041.47;4919256;29;20902;-87
2022/11/30 04:35:45;;;;;;;3.00;2.70;;;;;;;5.11;100.00;95037.81;4919061;29;20452;-86
2022/11/30 04:38:12;;;;;;;2.47;2.27;;;;;;;5.08;100.00;95036.25;4918784;29;20835;-87
2022/11/30 04:40:40;;;;;;;2.50;2.40;;;;;;;5.08;100.00;95032.81;4918724;29;20542;-87
2022/11/30 04:43:09;;;;;;;2.23;2.03;;;;;;;5.15;100.00;95036.69;4919231;29;20977;-87
2022/11/30 04:45:36;;;;;;;2.38;2.17;;;;;;;5.14;100.00;95037.63;4917919;29;20459;-86
2022/11/30 04:48:05;;;;;;;1.53;1.43;;;;;;;5.10;100.00;95033.56;4918230;29;20731;-86
2022/11/30 04:50:33;;;;;;;1.90;1.70;;;;;;;5.19;100.00;95032.97;4916280;29;20843;-87
2022/11/30 04:52:59;;;;;;;1.70;1.60;;;;;;;5.27;100.00;95038.56;4917990;29;20457;-86
2022/11/30 04:55:27;;;;;;;1.80;1.47;;;;;;;5.17;100.00;95040.03;4918212;29;20461;-87
2022/11/30 04:57:54;;;;;;;2.50;2.30;;;;;;;5.20;100.00;95040.72;4918299;29;20459;-86
2022/11/30 05:00:23;;;;;;;2.20;2.07;;;;;;;5.33;100.00;95051.19;4917560;29;20487;-85
2022/11/30 05:02:50;;;;;;;1.70;1.60;;;;;;;5.27;100.00;95042.00;4917778;29;20451;-86
2022/11/30 05:05:17;;;;;;;2.27;2.03;;;;;;;5.32;100.00;95044.31;4918063;29;20463;-86
2022/11/30 05:07:44;;;;;;;2.87;2.67;;;;;;;5.36;100.00;95040.59;4917911;29;20463;-86
2022/11/30 05:10:11;;;;;;;3.90;2.90;;;;;;;5.25;100.00;95050.84;4917618;29;20491;-85
2022/11/30 05:12:38;;;;;;;2.10;2.00;;;;;;;5.10;100.00;95046.56;4917134;29;20864;-85
2022/11/30 05:15:06;;;;;;;2.67;2.47;;;;;;;5.23;100.00;95055.31;4917645;29;20448;-87
2022/11/30 05:17:35;;;;;;;3.00;2.43;;;;;;;5.06;100.00;95048.50;4917504;29;20940;-85
2022/11/30 05:20:02;;;;;;;2.90;2.67;;;;;;;5.11;100.00;95045.63;4918439;29;20502;-85
2022/11/30 05:22:29;;;;;;;4.30;2.33;;;;;;;5.22;100.00;95051.03;4918498;29;20480;-82
2022/11/30 05:24:56;;;;;;;2.60;2.40;;;;;;;5.26;100.00;95049.91;4918815;29;20943;-90
2022/11/30 05:27:22;;;;;;;2.93;2.50;;;;;;;5.24;100.00;95046.56;4886315;29;20456;-81
2022/11/30 05:29:49;;;;;;;2.47;2.27;;;;;;;5.33;100.00;95053.78;4918300;29;20456;-87
2022/11/30 05:32:16;;;;;;;7.33;2.97;;;;;;;5.37;100.00;95052.66;4918463;29;20821;-89
2022/11/30 05:34:45;;;;;;;4.03;2.40;;;;;;;5.42;100.00;95047.19;4910408;29;20469;-82
2022/11/30 05:37:11;;;;;;;3.37;1.70;;;;;;;5.33;100.00;95047.75;4918316;29;20463;-85
2022/11/30 05:39:38;;;;;;;3.10;2.80;;;;;;;5.20;100.00;95045.06;4900360;29;20835;-85
2022/11/30 05:42:05;;;;;;;3.20;2.20;;;;;;;5.22;100.00;95058.84;4918337;29;20436;-82
2022/11/30 05:44:32;;;;;;;2.47;2.27;;;;;;;5.26;100.00;95053.34;4918269;29;20451;-83
2022/11/30 05:50:22;;;;;;;3.60;3.30;;;;;;;5.17;100.00;95058.25;4917873;29;20439;-83
2022/11/30 05:52:49;;;;;;;6.70;2.53;;;;;;;5.01;100.00;95062.72;4910291;29;20869;-85
2022/11/30 05:55:16;;;;;;;2.70;2.50;;;;;;;4.97;100.00;95065.50;4913090;29;20806;-84
2022/11/30 05:57:43;;;;;;;2.60;2.40;;;;;;;4.93;100.00;95063.19;4917984;29;20451;-84
2022/11/30 06:00:10;;;;;;;2.40;1.87;;;;;;;4.86;100.00;95061.88;4917535;29;20495;-84
2022/11/30 06:02:37;;;;;;;2.40;2.20;;;;;;;4.81;100.00;95064.75;4894827;29;20456;-84
2022/11/30 06:05:05;;;;;;;5.50;2.00;;;;;;;4.85;100.00;95075.78;4913019;29;20470;-84
2022/11/30 06:07:33;;;;;;;1.83;1.73;;;;;;;4.78;100.00;95072.72;4914481;29;20480;-82
2022/11/30 06:10:00;;;;;;;3.37;1.60;;;;;;;4.82;100.00;95074.22;4918396;29;20461;-86
2022/11/30 06:12:27;;;;;;;2.03;1.83;;;;;;;4.92;100.00;95082.31;4917715;29;20452;-83
2022/11/30 06:14:54;;;;;;;2.63;2.30;;;;;;;4.73;100.00;95082.56;4917834;29;20809;-84
2022/11/30 06:17:21;;;;;;;4.93;2.40;;;;;;;4.67;100.00;95088.13;4918223;29;20448;-85
2022/11/30 06:19:48;;;;;;;2.10;2.00;;;;;;;4.84;100.00;95080.16;4900078;29;20942;-85
2022/11/30 06:22:14;;;;;;;2.20;2.10;;;;;;;4.83;100.00;95086.28;4917327;29;20490;-84
2022/11/30 06:24:43;;;;;;;2.70;1.60;;;;;;;4.62;100.00;95080.56;4917541;29;20491;-84
2022/11/30 06:27:09;;;;;;;2.30;2.10;;;;;;;4.59;100.00;95075.56;4917914;29;20463;-84
2022/11/30 06:29:36;;;;;;;2.13;1.93;;;;;;;4.68;100.00;95084.59;4917335;29;20535;-84
2022/11/30 06:32:03;;;;;;;3.07;2.87;;;;;;;4.61;100.00;95078.06;4915830;29;20986;-84
2022/11/30 06:34:31;;;;;;;2.97;2.77;;;;;;;4.77;100.00;95084.06;4916342;29;20463;-85
2022/11/30 06:36:58;;;;;;;7.10;3.10;;;;;;;4.72;100.00;95085.25;4916377;29;20537;-84
2022/11/30 06:39:25;;;;;;;7.17;4.87;;;;;;;4.83;100.00;95088.88;4916164;29;20462;-84
2022/11/30 06:41:53;;;;;;;12.33;4.97;;;;;;;4.86;100.00;95093.06;4916307;29;20475;-84
2022/11/30 06:44:20;;;;;;;3.93;3.53;;;;;;;4.96;100.00;95100.25;4882179;29;20981;-83
2022/11/30 06:46:47;;;;;;;3.83;2.53;;;;;;;4.95;100.00;95101.19;4898603;29;20452;-83
2022/11/30 06:49:13;;;;;;;2.27;1.80;;;;;;;4.91;100.00;95097.06;4917519;29;20508;-83
2022/11/30 06:51:41;;;;;;;2.67;2.43;;;;;;;5.00;100.00;95106.09;4917441;29;20452;-83
2022/11/30 06:54:08;;;;;;;3.40;2.57;;;;;;;5.01;100.00;95091.34;4916238;29;20452;-82
2022/11/30 06:56:35;;;;;;;5.30;2.70;;;;;;;4.98;100.00;95098.38;4917028;29;20479;-82
2022/11/30 06:59:03;;;;;;;3.90;3.50;;;;;;;5.12;100.00;95112.31;4916419;29;20451;-83
2022/11/30 07:01:30;;;;;;;2.97;2.77;;;;;;;4.94;100.00;95107.31;4916273;29;20925;-82
2022/11/30 07:03:57;;;;;;;5.50;2.90;;;;;;;4.92;100.00;95109.16;4916538;29;20452;-83
2022/11/30 07:06:24;;;;;;;4.20;3.33;;;;;;;4.97;100.00;95103.69;4882939;29;20452;-83
2022/11/30 07:08:51;;;;;;;3.87;2.27;;;;;;;4.79;100.00;95096.97;4915918;29;20444;-83
2022/11/30 07:11:18;;;;;;;2.23;2.03;;;;;;;4.73;100.00;95094.72;4916074;29;20842;-83
2022/11/30 07:13:44;;;;;;;1.70;1.60;;;;;;;4.64;100.00;95094.34;4882793;29;20452;-83
2022/11/30 07:16:13;;;;;;;1.87;1.67;;;;;;;4.60;100.00;95097.19;4916221;29;20947;-83
2022/11/30 07:18:39;;;;;;;2.03;1.70;;;;;;;4.54;100.00;95098.38;4916194;29;20479;-83
2022/11/30 07:21:07;;;;;;;1.73;1.60;;;;;;;4.54;100.00;95089.75;4915745;29;20512;-83
2022/11/30 07:26:18;;;;;;;1.83;1.73;;;;;;;4.62;100.00;95105.72;4887910;29;20442;-83
2022/11/30 07:28:46;;;;;;;1.67;1.57;;;;;;;4.63;100.00;95113.47;4915813;29;20539;-82
2022/11/30 07:31:17;;;;;;;1.80;1.70;;;;;;;4.57;100.00;95108.59;4915984;29;20463;-83
2022/11/30 07:33:44;;;;;;;6.83;2.30;;;;;;;4.75;100.00;95100.66;4915802;29;20873;-83
2022/11/30 07:36:12;;;;;;;2.40;2.10;;;;;;;4.93;100.00;95105.63;4916033;29;20458;-83
2022/11/30 07:38:39;;;;;;;2.63;2.40;;;;;;;4.89;100.00;95103.28;4915660;29;20974;-83
2022/11/30 07:41:07;;;;;;;2.60;2.40;;;;;;;5.04;100.00;95107.59;4915523;29;20483;-83
2022/11/30 07:43:34;;;;;;;3.23;2.20;;;;;;;4.96;100.00;95110.66;4882839;29;20446;-83
2022/11/30 07:46:02;;;;;;;3.20;2.63;;;;;;;5.02;100.00;95112.03;4915537;29;20957;-83
2022/11/30 07:48:30;;;;;;;6.93;2.17;;;;;;;5.09;100.00;95107.31;4882313;29;20467;-83
2022/11/30 07:51:03;;;;;;;3.40;2.37;;;;;;;5.01;100.00;95105.16;4915591;29;20467;-83
2022/11/30 07:53:30;;;;;;;3.90;2.20;;;;;;;4.98;100.00;95111.41;4882264;29;20516;-83
2022/11/30 07:56:02;;;;;;;2.40;2.13;;;;;;;4.82;100.00;95105.41;4917796;29;20872;-83
2022/11/30 07:58:29;;;;;;;7.63;5.00;;;;;;;4.92;100.00;95103.97;4919541;29;20823;-82
2022/11/30 08:01:01;;;;;;;12.03;4.80;;;;;;;5.02;100.00;95101.63;4919242;29;20511;-82
2022/11/30 08:03:30;;;;;;;8.20;4.83;;;;;;;5.03;100.00;95105.06;4918939;29;20451;-83
2022/11/30 08:06:03;;;;;;;5.77;3.40;;;;;;;5.05;100.00;95106.66;4919109;29;20460;-84
2022/11/30 08:08:31;;;;;;;3.10;2.50;;;;;;;5.01;100.00;95102.56;4918855;29;20506;-84
2022/11/30 08:11:00;;;;;;;2.47;2.27;;;;;;;4.98;100.00;95098.38;4918530;29;20848;-83
2022/11/30 08:13:28;;;;;;;3.03;2.47;;;;;;;5.04;100.00;95097.19;4918480;29;20456;-84
2022/11/30 08:15:55;;;;;;;3.10;2.70;;;;;;;4.96;100.00;95105.44;4918700;29;20441;-85
2022/11/30 08:18:25;;;;;;;5.03;1.90;;;;;;;4.92;100.00;95101.38;4918834;29;20935;-84
2022/11/30 08:20:59;;;;;;;2.70;2.37;;;;;;;5.04;100.00;95106.75;4918452;29;20484;-85
2022/11/30 08:23:28;;;;;;;3.50;2.60;;;;;;;5.24;100.00;95102.03;4918705;29;20464;-84
2022/11/30 08:25:57;;;;;;;4.63;4.00;;;;;;;5.36;100.00;95102.19;4918804;29;20869;-84
2022/11/30 08:28:24;;;;;;;7.00;6.03;;;;;;;5.46;100.00;95100.69;4918636;29;20440;-84
2022/11/30 08:30:51;;;;;;;10.53;8.80;;;;;;;5.44;100.00;95100.78;4918596;29;20452;-85
2022/11/30 08:33:17;;;;;;;4.03;3.70;;;;;;;5.48;100.00;95102.28;4918288;29;20468;-84
2022/11/30 08:35:44;;;;;;;4.13;3.33;;;;;;;5.46;100.00;95106.75;4918959;29;20459;-84
2022/11/30 08:38:11;;;;;;;4.00;3.73;;;;;;;5.58;100.00;95108.59;4918376;29;20831;-84
2022/11/30 08:40:40;;;;;;;6.57;5.33;;;;;;;5.69;100.00;95107.09;4918364;29;20493;-84
2022/11/30 08:43:07;;;;;;;3.83;3.53;;;;;;;5.66;100.00;95105.53;4918181;29;20990;-84
2022/11/30 08:45:34;;;;;;;3.30;3.00;;;;;;;5.41;100.00;95106.19;4918855;29;20464;-84
2022/11/30 08:48:01;;;;;;;6.07;4.00;;;;;;;5.52;100.00;95101.19;4918644;29;20939;-85
2022/11/30 08:50:27;;;;;;;3.43;2.40;;;;;;;5.59;100.00;95105.06;4918136;29;20504;-84
2022/11/30 08:52:55;;;;;;;6.70;2.43;;;;;;;5.69;100.00;95100.13;4918316;29;21012;-84
2022/11/30 08:55:22;;;;;;;2.53;2.33;;;;;;;5.80;100.00;95107.28;4918099;29;20523;-84
2022/11/30 08:57:50;;;;;;;3.00;2.70;;;;;;;5.86;100.00;95096.47;4884718;29;20462;-84
2022/11/30 09:00:18;;;;;;;2.70;2.37;;;;;;;5.90;100.00;95103.19;4917996;29;20460;-85
2022/11/30 09:02:46;;;;;;;3.93;2.40;;;;;;;5.81;100.00;95106.34;4918116;29;20450;-85
2022/11/30 09:05:12;;;;;;;1.93;1.83;;;;;;;5.68;100.00;95103.66;4918003;29;20453;-84
2022/11/30 09:07:39;;;;;;;9.63;2.60;;;;;;;5.58;100.00;95113.81;4916885;29;20875;-84
2022/11/30 09:10:07;;;;;;;12.50;11.27;;;;;;;5.66;100.00;95115.09;4918215;29;20445;-84
2022/11/30 09:12:35;;;;;;;4.50;3.90;;;;;;;5.68;100.00;95108.84;4918015;29;20468;-85
2022/11/30 09:15:04;;;;;;;4.70;3.83;;;;;;;5.57;100.00;95111.31;4918149;29;20552;-84
2022/11/30 09:17:31;;;;;;;7.30;4.13;;;;;;;5.81;100.00;95104.56;4884666;29;20458;-84
2022/11/30 09:19:57;;;;;;;9.13;5.67;;;;;;;5.95;100.00;95113.31;4884462;29;20941;-84
2022/11/30 09:22:24;;;;;;;7.20;5.70;;;;;;;5.89;100.00;95109.28;4917547;29;20504;-84
2022/11/30 09:24:51;;;;;;;3.53;3.23;;;;;;;5.99;100.00;95110.41;4917719;29;20449;-84
2022/11/30 09:27:18;;;;;;;7.63;3.40;;;;;;;5.80;100.00;95108.13;4917650;29;20502;-85
2022/11/30 09:29:45;;;;;;;4.37;3.10;;;;;;;5.86;100.00;95107.72;4917760;29;20974;-84
2022/11/30 09:32:14;;;;;;;4.60;2.80;;;;;;;5.70;100.00;95119.19;4917814;29;20456;-84
2022/11/30 09:34:44;;;;;;;4.20;3.27;;;;;;;5.68;100.00;95118.44;4917754;29;20473;-85
2022/11/30 09:37:11;;;;;;;8.93;5.60;;;;;;;5.76;100.00;95116.19;4917349;29;20531;-84
2022/11/30 09:39:38;;;;;;;4.50;4.07;;;;;;;5.62;100.00;95113.63;4917335;29;20456;-84
2022/11/30 09:42:21;;;;;;;8.00;7.20;;;;;;;5.64;100.00;95112.59;4917358;29;20492;-84
2022/11/30 09:44:58;;;;;;;6.10;4.57;;;;;;;5.58;100.00;95112.97;4917203;29;20463;-85
2022/11/30 09:47:54;;;;;;;3.03;2.77;;;;;;;5.47;100.00;95121.41;4917081;29;20952;-85
2022/11/30 09:50:24;;;;;;;3.50;3.20;;;;;;;5.53;100.00;95118.47;4917290;29;20457;-85
2022/11/30 09:52:54;;;;;;;63.07;25.80;;;;;;;5.41;100.00;95124.41;4899643;29;20533;-84
2022/11/30 09:55:26;;;;;;;8.90;5.77;;;;;;;5.35;100.00;95114.38;4917203;29;20456;-84
2022/11/30 09:57:56;;;;;;;2.63;2.47;;;;;;;5.33;100.00;95112.81;4916979;29;20460;-83
2022/11/30 10:00:24;;;;;;;4.17;3.80;;;;;;;5.39;100.00;95097.66;4916903;29;20507;-83
2022/11/30 10:02:56;;;;;;;1.90;1.80;;;;;;;5.48;100.00;95107.47;4916874;29;20460;-83
2022/11/30 10:05:26;;;;;;;3.00;2.43;;;;;;;5.54;100.00;95104.53;4917322;29;20817;-83
2022/11/30 10:08:08;;;;;;;9.07;8.30;;;;;;;5.49;100.00;95101.38;4916719;29;20960;-83
2022/11/30 10:10:40;;;;;;;2.53;2.20;;;;;;;5.45;100.00;95097.25;4916814;29;20956;-83
2022/11/30 10:13:23;;;;;;;3.20;2.90;;;;;;;5.54;100.00;95101.09;4917201;29;20866;-83
2022/11/30 10:16:03;;;;;;;6.90;2.80;;;;;;;5.65;100.00;95108.22;4917033;29;20824;-83
2022/11/30 10:18:41;;;;;;;2.73;2.53;;;;;;;5.59;100.00;95102.47;4917050;29;20459;-84
2022/11/30 10:21:24;;;;;;;2.83;2.63;;;;;;;5.54;100.00;95107.13;4916621;29;20576;-83
2022/11/30 10:24:13;;;;;;;4.27;3.13;;;;;;;5.54;100.00;95101.91;4916503;29;20858;-83
2022/11/30 10:26:48;;;;;;;4.50;2.37;;;;;;;5.51;100.00;95085.66;4917222;29;21021;-84
2022/11/30 10:29:19;;;;;;;3.50;3.20;;;;;;;5.62;100.00;95098.00;4916637;29;20506;-83
2022/11/30 10:31:48;;;;;;;5.27;3.00;;;;;;;5.39;100.00;95089.84;4916289;29;20455;-84
2022/11/30 10:34:22;;;;;;;3.30;3.00;;;;;;;5.39;100.00;95095.03;4916827;29;20608;-85
2022/11/30 10:36:55;;;;;;;3.17;2.90;;;;;;;5.48;100.00;95091.03;4916325;29;20982;-85
2022/11/30 10:39:28;;;;;;;3.47;3.17;;;;;;;5.60;100.00;95092.88;4916401;29;20452;-85
2022/11/30 10:42:01;;;;;;;4.03;3.10;;;;;;;5.47;100.00;95087.59;4916078;29;20488;-85
2022/11/30 10:44:31;;;;;;;5.10;4.27;;;;;;;5.45;100.00;95081.66;4883342;29;20448;-85
2022/11/30 10:47:02;;;;;;;6.73;3.87;;;;;;;5.49;100.00;95090.97;4917053;29;20456;-85
2022/11/30 10:49:32;;;;;;;15.23;9.60;;;;;;;5.46;100.00;95088.53;4916342;29;20484;-85
2022/11/30 10:52:03;;;;;;;9.27;5.30;;;;;;;5.41;100.00;95087.97;4916646;29;20861;-85
2022/11/30 10:54:31;;;;;;;11.53;5.73;;;;;;;5.41;100.00;95084.53;4916237;29;20451;-85
2022/11/30 10:56:59;;;;;;;6.67;4.90;;;;;;;5.36;100.00;95071.81;4916511;29;20464;-85
2022/11/30 10:59:33;;;;;;;2.73;2.40;;;;;;;5.36;100.00;95074.41;4916345;29;20475;-84
2022/11/30 11:02:01;;;;;;;3.00;2.70;;;;;;;5.26;100.00;95066.34;4916609;29;20491;-84
2022/11/30 11:04:28;;;;;;;3.30;3.10;;;;;;;5.31;100.00;95067.84;4915971;29;20452;-85
2022/11/30 11:06:58;;;;;;;4.37;2.40;;;;;;;5.29;100.00;95067.94;4916109;29;20825;-85
2022/11/30 11:09:41;;;;;;;3.70;2.60;;;;;;;5.27;100.00;95068.03;4916140;29;20448;-84
2022/11/30 11:12:17;;;;;;;5.10;3.40;;;;;;;5.25;100.00;95064.69;4824416;29;20483;-85
2022/11/30 11:14:44;;;;;;;3.37;3.17;;;;;;;5.25;100.00;95066.44;4839304;29;20455;-85
2022/11/30 11:17:22;;;;;;;3.10;2.80;;;;;;;5.31;100.00;95063.47;4839412;29;20844;-85
2022/11/30 11:19:50;;;;;;;3.20;2.90;;;;;;;5.31;100.00;95073.03;4839695;29;20866;-85
2022/11/30 11:22:23;;;;;;;3.53;3.00;;;;;;;5.35;100.00;95064.94;4839442;29;21157;-85
2022/11/30 11:24:58;;;;;;;4.00;3.70;;;;;;;5.48;100.00;95071.03;4839490;29;20466;-86
2022/11/30 11:27:30;;;;;;;3.77;3.07;;;;;;;5.46;100.00;95056.47;4839381;29;20467;-84
2022/11/30 11:30:01;;;;;;;4.93;4.30;;;;;;;5.28;100.00;95061.06;4839901;29;20451;-85
2022/11/30 11:32:29;;;;;;;3.93;3.63;;;;;;;5.28;100.00;95059.28;4843546;29;21005;-84
2022/11/30 11:34:56;;;;;;;5.77;4.03;;;;;;;5.37;100.00;95060.47;4850050;29;20527;-85
2022/11/30 11:37:27;;;;;;;8.07;4.23;;;;;;;5.35;100.00;95058.91;4849891;29;20455;-84
2022/11/30 11:39:59;;;;;;;6.97;4.60;;;;;;;5.48;100.00;95058.03;4843699;29;20545;-85
2022/11/30 11:42:28;;;;;;;4.70;4.30;;;;;;;5.42;100.00;95065.38;4842644;29;20555;-85
2022/11/30 11:44:58;;;;;;;6.30;4.50;;;;;;;5.63;100.00;95058.03;4842854;29;20497;-85
2022/11/30 11:47:37;;;;;;;4.10;3.70;;;;;;;5.50;100.00;95057.97;4842582;29;20847;-85
2022/11/30 11:50:21;;;;;;;5.43;4.40;;;;;;;5.68;100.00;95056.78;4902664;29;20454;-85
2022/11/30 11:52:50;;;;;;;4.90;4.30;;;;;;;5.65;100.00;95051.78;4916950;29;20825;-84
2022/11/30 11:55:20;;;;;;;6.30;4.67;;;;;;;5.75;100.00;95058.06;4919679;29;20460;-85
2022/11/30 11:57:52;;;;;;;4.13;3.70;;;;;;;5.75;100.00;95052.88;4919498;29;20460;-85
2022/11/30 12:00:20;;;;;;;4.33;4.00;;;;;;;5.84;100.00;95047.09;4919405;29;20463;-85
2022/11/30 12:02:56;;;;;;;4.90;3.87;;;;;;;5.88;100.00;95058.16;4919425;29;20832;-85
2022/11/30 12:05:29;;;;;;;4.70;2.57;;;;;;;5.87;100.00;95053.88;4919289;29;20444;-83
2022/11/30 12:08:10;;;;;;;2.83;2.60;;;;;;;5.75;100.00;95071.09;4919723;29;20482;-84